sensor_id;sensor_type;location;lat;lon;timestamp;P1;durP1;ratioP1;P2;durP2;ratioP2
76546;SDS011;65390;53.014;8.886;2023-03-23T00:02:30;29.13;;;20.27;;
76546;SDS011;65390;53.014;8.886;2023-03-23T00:05:03;29.40;;;20.95;;
76546;SDS011;65390;53.014;8.886;2023-03-23T00:07:30;30.85;;;19.77;;
76546;SDS011;65390;53.014;8.886;2023-03-23T00:10:00;28.23;;;21.20;;
76546;SDS011;65390;53.014;8.886;2023-03-23T00:12:29;28.13;;;20.63;;
76546;SDS011;65390;53.014;8.886;2023-03-23T00:15:05;26.13;;;20.15;;
76546;SDS011;65390;53.014;8.886;2023-03-23T00:17:43;26.80;;;19.65;;
76546;SDS011;65390;53.014;8.886;2023-03-23T00:20:09;28.67;;;20.48;;
76546;SDS011;65390;53.014;8.886;2023-03-23T00:22:37;26.45;;;18.77;;
76546;SDS011;65390;53.014;8.886;2023-03-23T00:25:10;29.05;;;20.77;;
76546;SDS011;65390;53.014;8.886;2023-03-23T00:27:35;27.80;;;20.85;;
76546;SDS011;65390;53.014;8.886;2023-03-23T00:30:00;33.15;;;21.63;;
76546;SDS011;65390;53.014;8.886;2023-03-23T00:32:26;29.30;;;21.05;;
76546;SDS011;65390;53.014;8.886;2023-03-23T00:34:55;29.83;;;21.45;;
76546;SDS011;65390;53.014;8.886;2023-03-23T00:37:20;31.33;;;21.75;;
76546;SDS011;65390;53.014;8.886;2023-03-23T00:39:46;26.55;;;20.50;;
76546;SDS011;65390;53.014;8.886;2023-03-23T00:42:12;28.27;;;20.85;;
76546;SDS011;65390;53.014;8.886;2023-03-23T00:44:38;32.33;;;21.35;;
76546;SDS011;65390;53.014;8.886;2023-03-23T00:47:04;31.42;;;21.58;;
76546;SDS011;65390;53.014;8.886;2023-03-23T00:49:30;29.70;;;20.30;;
76546;SDS011;65390;53.014;8.886;2023-03-23T00:51:59;33.80;;;22.92;;
76546;SDS011;65390;53.014;8.886;2023-03-23T00:54:25;30.73;;;20.58;;
76546;SDS011;65390;53.014;8.886;2023-03-23T00:56:50;32.10;;;22.38;;
76546;SDS011;65390;53.014;8.886;2023-03-23T00:59:17;31.13;;;21.83;;
76546;SDS011;65390;53.014;8.886;2023-03-23T01:01:42;29.25;;;21.83;;
76546;SDS011;65390;53.014;8.886;2023-03-23T01:04:08;28.10;;;21.13;;
76546;SDS011;65390;53.014;8.886;2023-03-23T01:06:34;30.52;;;22.60;;
76546;SDS011;65390;53.014;8.886;2023-03-23T01:09:00;23.48;;;18.35;;
76546;SDS011;65390;53.014;8.886;2023-03-23T01:11:26;33.30;;;23.08;;
76546;SDS011;65390;53.014;8.886;2023-03-23T01:13:51;32.13;;;22.63;;
76546;SDS011;65390;53.014;8.886;2023-03-23T01:16:17;29.48;;;21.67;;
76546;SDS011;65390;53.014;8.886;2023-03-23T01:18:43;29.10;;;21.77;;
76546;SDS011;65390;53.014;8.886;2023-03-23T01:21:09;38.45;;;24.23;;
76546;SDS011;65390;53.014;8.886;2023-03-23T01:23:35;33.88;;;23.13;;
76546;SDS011;65390;53.014;8.886;2023-03-23T01:26:05;31.08;;;20.45;;
76546;SDS011;65390;53.014;8.886;2023-03-23T01:28:30;34.70;;;23.75;;
76546;SDS011;65390;53.014;8.886;2023-03-23T01:31:12;31.25;;;20.80;;
76546;SDS011;65390;53.014;8.886;2023-03-23T01:33:40;32.95;;;22.58;;
76546;SDS011;65390;53.014;8.886;2023-03-23T01:36:06;34.97;;;21.65;;
76546;SDS011;65390;53.014;8.886;2023-03-23T01:38:33;31.40;;;22.25;;
76546;SDS011;65390;53.014;8.886;2023-03-23T01:40:58;37.28;;;23.08;;
76546;SDS011;65390;53.014;8.886;2023-03-23T01:43:24;33.15;;;23.30;;
76546;SDS011;65390;53.014;8.886;2023-03-23T01:45:49;26.33;;;19.63;;
76546;SDS011;65390;53.014;8.886;2023-03-23T01:50:44;32.10;;;22.08;;
76546;SDS011;65390;53.014;8.886;2023-03-23T01:53:11;27.70;;;21.23;;
76546;SDS011;65390;53.014;8.886;2023-03-23T01:55:37;29.83;;;21.42;;
76546;SDS011;65390;53.014;8.886;2023-03-23T01:58:04;30.95;;;20.77;;
76546;SDS011;65390;53.014;8.886;2023-03-23T02:00:30;30.35;;;20.85;;
76546;SDS011;65390;53.014;8.886;2023-03-23T02:02:56;30.38;;;21.98;;
76546;SDS011;65390;53.014;8.886;2023-03-23T02:05:26;26.67;;;21.15;;
76546;SDS011;65390;53.014;8.886;2023-03-23T02:07:54;25.38;;;21.33;;
76546;SDS011;65390;53.014;8.886;2023-03-23T02:10:23;27.65;;;21.27;;
76546;SDS011;65390;53.014;8.886;2023-03-23T02:12:49;30.13;;;22.02;;
76546;SDS011;65390;53.014;8.886;2023-03-23T02:15:14;26.08;;;21.00;;
76546;SDS011;65390;53.014;8.886;2023-03-23T02:17:45;29.20;;;20.88;;
76546;SDS011;65390;53.014;8.886;2023-03-23T02:25:16;31.35;;;18.92;;
76546;SDS011;65390;53.014;8.886;2023-03-23T02:35:33;28.93;;;19.87;;
76546;SDS011;65390;53.014;8.886;2023-03-23T02:38:01;28.50;;;21.83;;
76546;SDS011;65390;53.014;8.886;2023-03-23T02:40:32;26.30;;;20.73;;
76546;SDS011;65390;53.014;8.886;2023-03-23T02:43:00;27.58;;;19.10;;
76546;SDS011;65390;53.014;8.886;2023-03-23T02:45:27;25.98;;;20.55;;
76546;SDS011;65390;53.014;8.886;2023-03-23T02:47:53;27.52;;;18.48;;
76546;SDS011;65390;53.014;8.886;2023-03-23T02:50:20;32.17;;;20.45;;
76546;SDS011;65390;53.014;8.886;2023-03-23T02:52:47;26.65;;;19.58;;
76546;SDS011;65390;53.014;8.886;2023-03-23T02:55:13;23.60;;;17.83;;
76546;SDS011;65390;53.014;8.886;2023-03-23T02:57:39;25.88;;;19.27;;
76546;SDS011;65390;53.014;8.886;2023-03-23T03:00:05;24.90;;;18.08;;
76546;SDS011;65390;53.014;8.886;2023-03-23T03:02:38;26.40;;;18.23;;
76546;SDS011;65390;53.014;8.886;2023-03-23T03:10:10;25.48;;;18.10;;
76546;SDS011;65390;53.014;8.886;2023-03-23T03:12:46;24.20;;;18.17;;
76546;SDS011;65390;53.014;8.886;2023-03-23T03:15:24;22.60;;;17.45;;
76546;SDS011;65390;53.014;8.886;2023-03-23T03:17:55;23.80;;;18.08;;
76546;SDS011;65390;53.014;8.886;2023-03-23T03:20:23;24.88;;;17.77;;
76546;SDS011;65390;53.014;8.886;2023-03-23T03:22:50;23.45;;;18.33;;
76546;SDS011;65390;53.014;8.886;2023-03-23T03:25:17;24.45;;;17.75;;
76546;SDS011;65390;53.014;8.886;2023-03-23T03:27:43;28.20;;;18.65;;
76546;SDS011;65390;53.014;8.886;2023-03-23T03:30:11;27.67;;;17.58;;
76546;SDS011;65390;53.014;8.886;2023-03-23T03:32:38;24.52;;;18.05;;
76546;SDS011;65390;53.014;8.886;2023-03-23T03:35:06;25.03;;;18.57;;
76546;SDS011;65390;53.014;8.886;2023-03-23T03:37:35;24.77;;;18.27;;
76546;SDS011;65390;53.014;8.886;2023-03-23T03:40:02;20.08;;;16.00;;
76546;SDS011;65390;53.014;8.886;2023-03-23T03:42:28;21.13;;;17.00;;
76546;SDS011;65390;53.014;8.886;2023-03-23T03:44:53;23.38;;;16.92;;
76546;SDS011;65390;53.014;8.886;2023-03-23T03:47:18;23.47;;;16.50;;
76546;SDS011;65390;53.014;8.886;2023-03-23T03:49:44;22.08;;;15.98;;
76546;SDS011;65390;53.014;8.886;2023-03-23T03:52:09;19.98;;;15.70;;
76546;SDS011;65390;53.014;8.886;2023-03-23T03:54:35;22.25;;;14.90;;
76546;SDS011;65390;53.014;8.886;2023-03-23T03:57:01;16.55;;;14.40;;
76546;SDS011;65390;53.014;8.886;2023-03-23T03:59:26;19.15;;;14.20;;
76546;SDS011;65390;53.014;8.886;2023-03-23T04:01:51;16.70;;;13.75;;
76546;SDS011;65390;53.014;8.886;2023-03-23T04:04:19;22.85;;;13.88;;
76546;SDS011;65390;53.014;8.886;2023-03-23T04:06:44;22.45;;;13.82;;
76546;SDS011;65390;53.014;8.886;2023-03-23T04:09:09;22.40;;;13.32;;
76546;SDS011;65390;53.014;8.886;2023-03-23T04:11:35;19.45;;;13.68;;
76546;SDS011;65390;53.014;8.886;2023-03-23T04:14:01;17.40;;;12.50;;
76546;SDS011;65390;53.014;8.886;2023-03-23T04:16:27;14.93;;;11.13;;
76546;SDS011;65390;53.014;8.886;2023-03-23T04:18:54;16.95;;;11.93;;
76546;SDS011;65390;53.014;8.886;2023-03-23T04:21:21;21.27;;;11.48;;
76546;SDS011;65390;53.014;8.886;2023-03-23T04:23:46;17.35;;;10.70;;
76546;SDS011;65390;53.014;8.886;2023-03-23T04:26:11;18.08;;;11.25;;
76546;SDS011;65390;53.014;8.886;2023-03-23T04:28:38;17.63;;;10.23;;
76546;SDS011;65390;53.014;8.886;2023-03-23T04:31:03;15.05;;;10.88;;
76546;SDS011;65390;53.014;8.886;2023-03-23T04:33:29;13.98;;;11.05;;
76546;SDS011;65390;53.014;8.886;2023-03-23T04:35:56;18.80;;;11.23;;
76546;SDS011;65390;53.014;8.886;2023-03-23T04:38:21;17.63;;;10.68;;
76546;SDS011;65390;53.014;8.886;2023-03-23T04:40:48;16.55;;;10.45;;
76546;SDS011;65390;53.014;8.886;2023-03-23T04:43:18;16.45;;;9.85;;
76546;SDS011;65390;53.014;8.886;2023-03-23T04:45:46;14.63;;;9.30;;
76546;SDS011;65390;53.014;8.886;2023-03-23T04:48:11;20.13;;;9.80;;
76546;SDS011;65390;53.014;8.886;2023-03-23T04:50:37;10.98;;;7.63;;
76546;SDS011;65390;53.014;8.886;2023-03-23T04:53:02;9.38;;;7.47;;
76546;SDS011;65390;53.014;8.886;2023-03-23T04:55:31;12.43;;;8.05;;
76546;SDS011;65390;53.014;8.886;2023-03-23T04:58:00;13.30;;;8.38;;
76546;SDS011;65390;53.014;8.886;2023-03-23T05:00:26;16.27;;;8.57;;
76546;SDS011;65390;53.014;8.886;2023-03-23T05:02:51;14.95;;;7.78;;
76546;SDS011;65390;53.014;8.886;2023-03-23T05:05:17;13.20;;;7.18;;
76546;SDS011;65390;53.014;8.886;2023-03-23T05:07:42;13.10;;;7.35;;
76546;SDS011;65390;53.014;8.886;2023-03-23T05:10:08;12.40;;;8.10;;
76546;SDS011;65390;53.014;8.886;2023-03-23T05:12:35;13.65;;;8.73;;
76546;SDS011;65390;53.014;8.886;2023-03-23T05:15:00;15.40;;;7.22;;
76546;SDS011;65390;53.014;8.886;2023-03-23T05:17:26;11.45;;;7.40;;
76546;SDS011;65390;53.014;8.886;2023-03-23T05:19:51;12.10;;;7.85;;
76546;SDS011;65390;53.014;8.886;2023-03-23T05:22:16;15.20;;;7.03;;
76546;SDS011;65390;53.014;8.886;2023-03-23T05:24:42;11.63;;;7.55;;
76546;SDS011;65390;53.014;8.886;2023-03-23T05:27:08;10.88;;;6.20;;
76546;SDS011;65390;53.014;8.886;2023-03-23T05:29:33;11.13;;;7.30;;
76546;SDS011;65390;53.014;8.886;2023-03-23T05:32:01;10.32;;;6.97;;
76546;SDS011;65390;53.014;8.886;2023-03-23T05:34:27;8.65;;;6.90;;
76546;SDS011;65390;53.014;8.886;2023-03-23T05:36:54;11.80;;;7.22;;
76546;SDS011;65390;53.014;8.886;2023-03-23T05:39:20;10.82;;;7.30;;
76546;SDS011;65390;53.014;8.886;2023-03-23T05:41:45;10.77;;;6.93;;
76546;SDS011;65390;53.014;8.886;2023-03-23T05:44:11;11.10;;;6.32;;
76546;SDS011;65390;53.014;8.886;2023-03-23T05:46:38;8.48;;;6.13;;
76546;SDS011;65390;53.014;8.886;2023-03-23T05:49:03;8.80;;;6.25;;
76546;SDS011;65390;53.014;8.886;2023-03-23T05:51:28;10.40;;;6.55;;
76546;SDS011;65390;53.014;8.886;2023-03-23T05:53:54;12.07;;;6.65;;
76546;SDS011;65390;53.014;8.886;2023-03-23T05:56:20;7.05;;;5.38;;
76546;SDS011;65390;53.014;8.886;2023-03-23T05:58:46;9.07;;;6.00;;
76546;SDS011;65390;53.014;8.886;2023-03-23T06:01:11;12.57;;;6.57;;
76546;SDS011;65390;53.014;8.886;2023-03-23T06:03:39;8.07;;;5.45;;
76546;SDS011;65390;53.014;8.886;2023-03-23T06:06:04;13.45;;;6.65;;
76546;SDS011;65390;53.014;8.886;2023-03-23T06:08:30;11.55;;;5.32;;
76546;SDS011;65390;53.014;8.886;2023-03-23T06:10:55;8.50;;;5.70;;
76546;SDS011;65390;53.014;8.886;2023-03-23T06:13:21;11.13;;;5.35;;
76546;SDS011;65390;53.014;8.886;2023-03-23T06:15:47;10.23;;;5.90;;
76546;SDS011;65390;53.014;8.886;2023-03-23T06:18:12;9.50;;;6.75;;
76546;SDS011;65390;53.014;8.886;2023-03-23T06:20:38;11.00;;;6.47;;
76546;SDS011;65390;53.014;8.886;2023-03-23T06:23:04;8.18;;;5.45;;
76546;SDS011;65390;53.014;8.886;2023-03-23T06:25:29;9.82;;;5.85;;
76546;SDS011;65390;53.014;8.886;2023-03-23T06:27:54;8.75;;;5.57;;
76546;SDS011;65390;53.014;8.886;2023-03-23T06:30:20;7.85;;;4.95;;
76546;SDS011;65390;53.014;8.886;2023-03-23T06:32:45;12.88;;;5.82;;
76546;SDS011;65390;53.014;8.886;2023-03-23T06:35:12;9.45;;;5.47;;
76546;SDS011;65390;53.014;8.886;2023-03-23T06:37:38;7.82;;;6.15;;
76546;SDS011;65390;53.014;8.886;2023-03-23T06:40:03;7.32;;;5.82;;
76546;SDS011;65390;53.014;8.886;2023-03-23T06:42:31;12.48;;;6.20;;
76546;SDS011;65390;53.014;8.886;2023-03-23T06:44:57;8.20;;;6.40;;
76546;SDS011;65390;53.014;8.886;2023-03-23T06:47:23;11.45;;;7.50;;
76546;SDS011;65390;53.014;8.886;2023-03-23T06:49:48;11.38;;;7.85;;
76546;SDS011;65390;53.014;8.886;2023-03-23T06:52:13;11.77;;;7.03;;
76546;SDS011;65390;53.014;8.886;2023-03-23T06:54:39;10.82;;;7.43;;
76546;SDS011;65390;53.014;8.886;2023-03-23T06:57:05;9.50;;;7.60;;
76546;SDS011;65390;53.014;8.886;2023-03-23T06:59:30;10.35;;;6.95;;
76546;SDS011;65390;53.014;8.886;2023-03-23T07:01:56;8.15;;;6.88;;
76546;SDS011;65390;53.014;8.886;2023-03-23T07:04:21;9.85;;;6.85;;
76546;SDS011;65390;53.014;8.886;2023-03-23T07:06:48;11.68;;;7.32;;
76546;SDS011;65390;53.014;8.886;2023-03-23T07:09:13;7.82;;;6.78;;
76546;SDS011;65390;53.014;8.886;2023-03-23T07:11:38;8.02;;;6.90;;
76546;SDS011;65390;53.014;8.886;2023-03-23T07:14:04;10.63;;;6.78;;
76546;SDS011;65390;53.014;8.886;2023-03-23T07:16:29;8.05;;;5.60;;
76546;SDS011;65390;53.014;8.886;2023-03-23T07:18:55;9.20;;;5.90;;
76546;SDS011;65390;53.014;8.886;2023-03-23T07:21:21;5.53;;;4.70;;
76546;SDS011;65390;53.014;8.886;2023-03-23T07:23:46;7.10;;;5.15;;
76546;SDS011;65390;53.014;8.886;2023-03-23T07:26:12;5.47;;;4.28;;
76546;SDS011;65390;53.014;8.886;2023-03-23T07:28:37;5.38;;;4.18;;
76546;SDS011;65390;53.014;8.886;2023-03-23T07:31:03;6.82;;;5.10;;
76546;SDS011;65390;53.014;8.886;2023-03-23T07:33:28;8.50;;;5.93;;
76546;SDS011;65390;53.014;8.886;2023-03-23T07:35:53;7.82;;;5.60;;
76546;SDS011;65390;53.014;8.886;2023-03-23T07:38:18;9.15;;;5.80;;
76546;SDS011;65390;53.014;8.886;2023-03-23T07:40:45;9.85;;;5.97;;
76546;SDS011;65390;53.014;8.886;2023-03-23T07:43:10;8.18;;;6.32;;
76546;SDS011;65390;53.014;8.886;2023-03-23T07:45:36;10.02;;;5.63;;
76546;SDS011;65390;53.014;8.886;2023-03-23T07:48:01;10.65;;;6.18;;
76546;SDS011;65390;53.014;8.886;2023-03-23T07:50:27;5.82;;;4.78;;
76546;SDS011;65390;53.014;8.886;2023-03-23T07:52:56;11.73;;;4.60;;
76546;SDS011;65390;53.014;8.886;2023-03-23T07:55:22;9.32;;;4.43;;
76546;SDS011;65390;53.014;8.886;2023-03-23T07:57:49;8.27;;;2.58;;
76546;SDS011;65390;53.014;8.886;2023-03-23T08:00:16;4.72;;;1.65;;
76546;SDS011;65390;53.014;8.886;2023-03-23T08:02:48;7.20;;;5.03;;
76546;SDS011;65390;53.014;8.886;2023-03-23T08:05:14;7.93;;;2.97;;
76546;SDS011;65390;53.014;8.886;2023-03-23T08:07:40;8.02;;;2.03;;
76546;SDS011;65390;53.014;8.886;2023-03-23T08:10:06;7.68;;;1.80;;
76546;SDS011;65390;53.014;8.886;2023-03-23T08:12:35;5.22;;;2.03;;
76546;SDS011;65390;53.014;8.886;2023-03-23T08:15:00;8.35;;;2.13;;
76546;SDS011;65390;53.014;8.886;2023-03-23T08:17:26;15.02;;;2.85;;
76546;SDS011;65390;53.014;8.886;2023-03-23T08:19:51;9.97;;;2.70;;
76546;SDS011;65390;53.014;8.886;2023-03-23T08:22:17;13.43;;;2.47;;
76546;SDS011;65390;53.014;8.886;2023-03-23T08:24:42;10.10;;;2.40;;
76546;SDS011;65390;53.014;8.886;2023-03-23T08:27:08;4.43;;;2.65;;
76546;SDS011;65390;53.014;8.886;2023-03-23T08:29:34;11.85;;;2.88;;
76546;SDS011;65390;53.014;8.886;2023-03-23T08:31:59;10.38;;;2.35;;
76546;SDS011;65390;53.014;8.886;2023-03-23T08:34:24;9.20;;;3.53;;
76546;SDS011;65390;53.014;8.886;2023-03-23T08:36:50;11.00;;;2.53;;
76546;SDS011;65390;53.014;8.886;2023-03-23T08:39:18;9.98;;;2.28;;
76546;SDS011;65390;53.014;8.886;2023-03-23T08:41:43;15.20;;;3.08;;
76546;SDS011;65390;53.014;8.886;2023-03-23T08:44:09;13.90;;;3.70;;
76546;SDS011;65390;53.014;8.886;2023-03-23T08:46:35;13.93;;;4.30;;
76546;SDS011;65390;53.014;8.886;2023-03-23T08:49:00;13.63;;;3.47;;
76546;SDS011;65390;53.014;8.886;2023-03-23T08:51:25;15.43;;;3.65;;
76546;SDS011;65390;53.014;8.886;2023-03-23T08:53:51;11.65;;;3.45;;
76546;SDS011;65390;53.014;8.886;2023-03-23T08:56:17;10.57;;;2.90;;
76546;SDS011;65390;53.014;8.886;2023-03-23T08:58:42;12.90;;;3.47;;
76546;SDS011;65390;53.014;8.886;2023-03-23T09:01:08;10.68;;;3.38;;
76546;SDS011;65390;53.014;8.886;2023-03-23T09:03:34;14.75;;;3.55;;
76546;SDS011;65390;53.014;8.886;2023-03-23T09:06:05;13.30;;;3.72;;
76546;SDS011;65390;53.014;8.886;2023-03-23T09:08:31;12.45;;;3.70;;
76546;SDS011;65390;53.014;8.886;2023-03-23T09:11:00;13.98;;;3.70;;
76546;SDS011;65390;53.014;8.886;2023-03-23T09:13:25;10.88;;;3.42;;
76546;SDS011;65390;53.014;8.886;2023-03-23T09:15:50;8.57;;;3.05;;
76546;SDS011;65390;53.014;8.886;2023-03-23T09:18:17;12.30;;;3.03;;
76546;SDS011;65390;53.014;8.886;2023-03-23T09:20:43;7.18;;;2.78;;
76546;SDS011;65390;53.014;8.886;2023-03-23T09:23:08;13.25;;;3.13;;
76546;SDS011;65390;53.014;8.886;2023-03-23T09:25:34;9.13;;;3.00;;
76546;SDS011;65390;53.014;8.886;2023-03-23T09:27:59;9.40;;;2.83;;
76546;SDS011;65390;53.014;8.886;2023-03-23T09:30:29;10.27;;;2.70;;
76546;SDS011;65390;53.014;8.886;2023-03-23T09:32:55;8.35;;;2.35;;
76546;SDS011;65390;53.014;8.886;2023-03-23T09:35:21;11.00;;;3.15;;
76546;SDS011;65390;53.014;8.886;2023-03-23T09:37:47;74.70;;;35.03;;
76546;SDS011;65390;53.014;8.886;2023-03-23T09:40:15;15.55;;;3.67;;
76546;SDS011;65390;53.014;8.886;2023-03-23T09:50:30;36.78;;;14.57;;
76546;SDS011;65390;53.014;8.886;2023-03-23T09:53:04;27.83;;;8.18;;
76546;SDS011;65390;53.014;8.886;2023-03-23T09:55:33;14.50;;;3.33;;
76546;SDS011;65390;53.014;8.886;2023-03-23T09:58:20;10.77;;;3.00;;
76546;SDS011;65390;53.014;8.886;2023-03-23T10:00:46;13.35;;;3.60;;
76546;SDS011;65390;53.014;8.886;2023-03-23T10:03:14;12.98;;;3.53;;
76546;SDS011;65390;53.014;8.886;2023-03-23T10:05:47;7.78;;;2.65;;
76546;SDS011;65390;53.014;8.886;2023-03-23T10:08:17;17.25;;;3.65;;
76546;SDS011;65390;53.014;8.886;2023-03-23T10:13:25;13.13;;;3.38;;
76546;SDS011;65390;53.014;8.886;2023-03-23T10:15:52;14.15;;;3.63;;
76546;SDS011;65390;53.014;8.886;2023-03-23T10:21:06;14.40;;;4.05;;
76546;SDS011;65390;53.014;8.886;2023-03-23T10:23:41;11.82;;;4.07;;
76546;SDS011;65390;53.014;8.886;2023-03-23T10:28:44;17.10;;;4.20;;
76546;SDS011;65390;53.014;8.886;2023-03-23T10:31:34;20.05;;;4.13;;
76546;SDS011;65390;53.014;8.886;2023-03-23T10:33:56;18.65;;;3.45;;
76546;SDS011;65390;53.014;8.886;2023-03-23T10:36:24;8.68;;;3.33;;
76546;SDS011;65390;53.014;8.886;2023-03-23T10:41:28;12.90;;;4.47;;
76546;SDS011;65390;53.014;8.886;2023-03-23T10:43:56;19.30;;;4.10;;
76546;SDS011;65390;53.014;8.886;2023-03-23T10:46:27;14.13;;;3.72;;
76546;SDS011;65390;53.014;8.886;2023-03-23T10:48:54;21.80;;;4.40;;
76546;SDS011;65390;53.014;8.886;2023-03-23T10:51:22;15.38;;;5.40;;
76546;SDS011;65390;53.014;8.886;2023-03-23T10:53:50;11.02;;;3.95;;
76546;SDS011;65390;53.014;8.886;2023-03-23T10:56:20;15.20;;;4.50;;
76546;SDS011;65390;53.014;8.886;2023-03-23T10:58:47;23.38;;;4.32;;
76546;SDS011;65390;53.014;8.886;2023-03-23T11:01:12;14.52;;;4.47;;
76546;SDS011;65390;53.014;8.886;2023-03-23T11:03:41;13.27;;;4.13;;
76546;SDS011;65390;53.014;8.886;2023-03-23T11:06:09;18.85;;;4.43;;
76546;SDS011;65390;53.014;8.886;2023-03-23T11:08:36;16.98;;;4.00;;
76546;SDS011;65390;53.014;8.886;2023-03-23T11:11:10;13.52;;;3.78;;
76546;SDS011;65390;53.014;8.886;2023-03-23T11:13:38;12.82;;;4.00;;
76546;SDS011;65390;53.014;8.886;2023-03-23T11:16:04;13.07;;;3.65;;
76546;SDS011;65390;53.014;8.886;2023-03-23T11:18:40;9.90;;;3.20;;
76546;SDS011;65390;53.014;8.886;2023-03-23T11:21:07;9.43;;;3.72;;
76546;SDS011;65390;53.014;8.886;2023-03-23T11:23:38;10.98;;;3.63;;
76546;SDS011;65390;53.014;8.886;2023-03-23T11:29:04;16.35;;;4.45;;
76546;SDS011;65390;53.014;8.886;2023-03-23T11:31:34;10.70;;;3.75;;
76546;SDS011;65390;53.014;8.886;2023-03-23T11:34:10;11.02;;;3.80;;
76546;SDS011;65390;53.014;8.886;2023-03-23T11:36:40;15.70;;;4.63;;
76546;SDS011;65390;53.014;8.886;2023-03-23T11:41:44;16.40;;;3.95;;
76546;SDS011;65390;53.014;8.886;2023-03-23T11:44:10;11.77;;;4.00;;
76546;SDS011;65390;53.014;8.886;2023-03-23T11:49:07;13.05;;;3.55;;
76546;SDS011;65390;53.014;8.886;2023-03-23T11:51:37;8.40;;;3.45;;
76546;SDS011;65390;53.014;8.886;2023-03-23T11:54:13;7.43;;;3.70;;
76546;SDS011;65390;53.014;8.886;2023-03-23T11:56:42;8.00;;;3.40;;
76546;SDS011;65390;53.014;8.886;2023-03-23T11:59:12;8.52;;;4.15;;
76546;SDS011;65390;53.014;8.886;2023-03-23T12:04:27;9.55;;;2.92;;
76546;SDS011;65390;53.014;8.886;2023-03-23T12:06:59;7.80;;;3.28;;
76546;SDS011;65390;53.014;8.886;2023-03-23T12:12:15;8.95;;;3.00;;
76546;SDS011;65390;53.014;8.886;2023-03-23T12:22:46;6.50;;;2.28;;
76546;SDS011;65390;53.014;8.886;2023-03-23T12:25:30;7.32;;;3.80;;
76546;SDS011;65390;53.014;8.886;2023-03-23T12:30:43;7.55;;;3.30;;
76546;SDS011;65390;53.014;8.886;2023-03-23T12:43:27;4.78;;;2.75;;
76546;SDS011;65390;53.014;8.886;2023-03-23T12:45:56;5.03;;;2.35;;
76546;SDS011;65390;53.014;8.886;2023-03-23T12:48:32;6.85;;;2.35;;
76546;SDS011;65390;53.014;8.886;2023-03-23T12:51:18;3.30;;;2.17;;
76546;SDS011;65390;53.014;8.886;2023-03-23T12:56:20;4.35;;;1.95;;
76546;SDS011;65390;53.014;8.886;2023-03-23T12:58:47;5.63;;;2.50;;
76546;SDS011;65390;53.014;8.886;2023-03-23T13:01:22;7.80;;;2.03;;
76546;SDS011;65390;53.014;8.886;2023-03-23T13:03:56;3.58;;;1.63;;
76546;SDS011;65390;53.014;8.886;2023-03-23T13:06:26;3.60;;;1.90;;
76546;SDS011;65390;53.014;8.886;2023-03-23T13:14:16;9.00;;;2.70;;
76546;SDS011;65390;53.014;8.886;2023-03-23T13:24:26;4.10;;;2.10;;
76546;SDS011;65390;53.014;8.886;2023-03-23T13:26:52;9.05;;;2.22;;
76546;SDS011;65390;53.014;8.886;2023-03-23T13:29:21;6.45;;;2.42;;
76546;SDS011;65390;53.014;8.886;2023-03-23T13:31:49;6.20;;;1.77;;
76546;SDS011;65390;53.014;8.886;2023-03-23T13:36:44;5.17;;;1.87;;
76546;SDS011;65390;53.014;8.886;2023-03-23T13:39:21;5.32;;;1.83;;
76546;SDS011;65390;53.014;8.886;2023-03-23T13:41:58;7.63;;;2.47;;
76546;SDS011;65390;53.014;8.886;2023-03-23T13:44:24;9.48;;;2.10;;
76546;SDS011;65390;53.014;8.886;2023-03-23T13:47:05;6.30;;;2.35;;
76546;SDS011;65390;53.014;8.886;2023-03-23T13:49:31;6.13;;;1.95;;
76546;SDS011;65390;53.014;8.886;2023-03-23T13:52:15;6.55;;;2.50;;
76546;SDS011;65390;53.014;8.886;2023-03-23T13:54:42;5.43;;;2.25;;
76546;SDS011;65390;53.014;8.886;2023-03-23T13:57:23;6.82;;;2.80;;
76546;SDS011;65390;53.014;8.886;2023-03-23T13:59:49;8.30;;;2.58;;
76546;SDS011;65390;53.014;8.886;2023-03-23T14:02:27;12.77;;;2.47;;
76546;SDS011;65390;53.014;8.886;2023-03-23T14:04:53;4.80;;;1.75;;
76546;SDS011;65390;53.014;8.886;2023-03-23T14:07:19;6.30;;;2.25;;
76546;SDS011;65390;53.014;8.886;2023-03-23T14:09:45;5.82;;;2.25;;
76546;SDS011;65390;53.014;8.886;2023-03-23T14:12:17;9.10;;;2.72;;
76546;SDS011;65390;53.014;8.886;2023-03-23T14:14:56;6.30;;;2.05;;
76546;SDS011;65390;53.014;8.886;2023-03-23T14:17:27;9.35;;;3.20;;
76546;SDS011;65390;53.014;8.886;2023-03-23T14:19:54;9.88;;;4.10;;
76546;SDS011;65390;53.014;8.886;2023-03-23T14:24:48;7.70;;;2.60;;
76546;SDS011;65390;53.014;8.886;2023-03-23T14:27:18;7.13;;;1.70;;
76546;SDS011;65390;53.014;8.886;2023-03-23T14:29:44;11.70;;;2.90;;
76546;SDS011;65390;53.014;8.886;2023-03-23T14:32:17;7.38;;;1.98;;
76546;SDS011;65390;53.014;8.886;2023-03-23T14:34:43;22.67;;;11.48;;
76546;SDS011;65390;53.014;8.886;2023-03-23T14:37:13;23.33;;;11.57;;
76546;SDS011;65390;53.014;8.886;2023-03-23T14:39:39;8.05;;;2.88;;
76546;SDS011;65390;53.014;8.886;2023-03-23T14:42:05;4.95;;;1.50;;
76546;SDS011;65390;53.014;8.886;2023-03-23T14:44:33;3.10;;;0.90;;
76546;SDS011;65390;53.014;8.886;2023-03-23T14:47:01;6.18;;;1.33;;
76546;SDS011;65390;53.014;8.886;2023-03-23T14:49:36;5.78;;;1.48;;
76546;SDS011;65390;53.014;8.886;2023-03-23T14:52:24;4.05;;;1.30;;
76546;SDS011;65390;53.014;8.886;2023-03-23T14:54:48;7.03;;;2.08;;
76546;SDS011;65390;53.014;8.886;2023-03-23T14:57:17;8.70;;;1.55;;
76546;SDS011;65390;53.014;8.886;2023-03-23T14:59:44;6.55;;;2.22;;
76546;SDS011;65390;53.014;8.886;2023-03-23T15:02:14;12.52;;;3.03;;
76546;SDS011;65390;53.014;8.886;2023-03-23T15:04:42;12.23;;;2.53;;
76546;SDS011;65390;53.014;8.886;2023-03-23T15:07:08;7.53;;;2.50;;
76546;SDS011;65390;53.014;8.886;2023-03-23T15:09:34;5.40;;;1.77;;
76546;SDS011;65390;53.014;8.886;2023-03-23T15:12:03;9.88;;;2.55;;
76546;SDS011;65390;53.014;8.886;2023-03-23T15:14:34;15.23;;;3.88;;
76546;SDS011;65390;53.014;8.886;2023-03-23T15:17:02;4.90;;;2.03;;
76546;SDS011;65390;53.014;8.886;2023-03-23T15:19:35;17.35;;;4.22;;
76546;SDS011;65390;53.014;8.886;2023-03-23T15:22:06;10.18;;;2.38;;
76546;SDS011;65390;53.014;8.886;2023-03-23T15:27:03;4.25;;;1.65;;
76546;SDS011;65390;53.014;8.886;2023-03-23T15:29:29;15.75;;;2.35;;
76546;SDS011;65390;53.014;8.886;2023-03-23T15:31:54;13.25;;;2.53;;
76546;SDS011;65390;53.014;8.886;2023-03-23T15:34:24;8.40;;;1.88;;
76546;SDS011;65390;53.014;8.886;2023-03-23T15:36:51;5.82;;;2.25;;
76546;SDS011;65390;53.014;8.886;2023-03-23T15:39:17;11.57;;;1.98;;
76546;SDS011;65390;53.014;8.886;2023-03-23T15:41:48;6.53;;;2.00;;
76546;SDS011;65390;53.014;8.886;2023-03-23T15:44:20;6.05;;;1.85;;
76546;SDS011;65390;53.014;8.886;2023-03-23T15:46:49;11.82;;;2.45;;
76546;SDS011;65390;53.014;8.886;2023-03-23T15:49:15;9.38;;;2.08;;
76546;SDS011;65390;53.014;8.886;2023-03-23T15:51:41;7.72;;;1.92;;
76546;SDS011;65390;53.014;8.886;2023-03-23T15:54:08;9.90;;;2.10;;
76546;SDS011;65390;53.014;8.886;2023-03-23T15:56:35;9.38;;;1.98;;
76546;SDS011;65390;53.014;8.886;2023-03-23T15:59:00;9.05;;;1.55;;
76546;SDS011;65390;53.014;8.886;2023-03-23T16:01:27;10.60;;;2.15;;
76546;SDS011;65390;53.014;8.886;2023-03-23T16:03:53;7.93;;;2.47;;
76546;SDS011;65390;53.014;8.886;2023-03-23T16:06:20;8.15;;;1.83;;
76546;SDS011;65390;53.014;8.886;2023-03-23T16:08:46;5.03;;;1.33;;
76546;SDS011;65390;53.014;8.886;2023-03-23T16:11:12;6.45;;;1.15;;
76546;SDS011;65390;53.014;8.886;2023-03-23T16:13:37;4.90;;;1.23;;
76546;SDS011;65390;53.014;8.886;2023-03-23T16:16:03;9.15;;;1.63;;